Time;durP1;ratioP1;P1;durP2;ratioP2;P2;SDS_P1;SDS_P2;PMS_P1;PMS_P2;Temp;Humidity;BMP_temperature;BMP_pressure;BME280_temperature;BME280_humidity;BME280_pressure;Samples;Min_cycle;Max_cycle;Signal;HPM_P1;HPM_P2
2022/06/27 00:01:58;;;;;;;16.00;9.55;;;;;;;23.37;63.07;99900.81;5030733;28;20459;-42
2022/06/27 00:04:23;;;;;;;17.92;10.57;;;;;;;23.36;63.19;99907.06;5031993;28;20052;-41
2022/06/27 00:06:49;;;;;;;22.73;10.50;;;;;;;23.33;63.55;99915.31;5030780;28;20128;-42
2022/06/27 00:09:15;;;;;;;17.35;10.20;;;;;;;23.19;63.68;99897.84;5032423;28;20540;-41
2022/06/27 00:11:40;;;;;;;19.95;10.05;;;;;;;23.23;64.24;99920.53;5031479;28;20434;-41
2022/06/27 00:14:06;;;;;;;13.07;9.50;;;;;;;23.16;64.75;99913.19;5031180;28;20051;-43
2022/06/27 00:16:32;;;;;;;20.83;10.05;;;;;;;23.03;65.07;99902.75;5027326;28;20425;-43
2022/06/27 00:18:58;;;;;;;19.63;11.20;;;;;;;22.93;65.32;99900.97;5026521;28;20045;-43
2022/06/27 00:21:23;;;;;;;16.95;9.93;;;;;;;23.03;65.77;99918.66;5014013;28;20053;-42
2022/06/27 00:23:49;;;;;;;16.52;9.50;;;;;;;22.98;66.11;99923.50;5031376;28;20424;-41
2022/06/27 00:26:15;;;;;;;20.05;9.85;;;;;;;22.95;66.30;99922.91;5027577;28;20429;-42
2022/06/27 00:28:40;;;;;;;13.88;9.20;;;;;;;22.96;66.10;99922.81;5021126;28;20041;-42
2022/06/27 00:31:06;;;;;;;15.32;9.75;;;;;;;22.97;66.07;99936.91;5011864;28;20033;-42
2022/06/27 00:33:32;;;;;;;15.35;9.07;;;;;;;22.95;66.22;99921.09;5029162;28;20052;-41
2022/06/27 00:35:58;;;;;;;19.35;10.02;;;;;;;22.89;66.41;99908.34;4997748;28;20057;-41
2022/06/27 00:38:24;;;;;;;20.67;10.27;;;;;;;22.85;66.46;99904.25;5023071;28;20038;-42
2022/06/27 00:40:50;;;;;;;18.33;9.85;;;;;;;22.99;66.51;99927.00;5010994;28;20041;-42
2022/06/27 00:43:17;;;;;;;15.75;10.07;;;;;;;22.97;66.84;99927.13;5016090;28;20512;-43
2022/06/27 00:45:42;;;;;;;19.75;10.82;;;;;;;22.95;66.95;99920.25;5029827;28;20045;-42
2022/06/27 00:48:08;;;;;;;17.33;9.55;;;;;;;22.94;67.15;99924.72;5029587;28;20048;-41
2022/06/27 00:50:34;;;;;;;16.73;10.77;;;;;;;22.83;67.56;99908.00;5029774;28;20048;-45
2022/06/27 00:53:00;;;;;;;16.63;9.93;;;;;;;22.90;67.64;99925.09;5011385;28;20421;-44
2022/06/27 00:55:28;;;;;;;20.17;10.18;;;;;;;22.87;67.97;99917.41;5037076;28;20046;-43
2022/06/27 00:57:54;;;;;;;17.90;10.45;;;;;;;22.87;68.11;99925.38;5016939;28;20045;-43
2022/06/27 01:00:21;;;;;;;15.52;10.02;;;;;;;22.85;68.21;99922.81;5054851;28;20074;-41
2022/06/27 01:02:47;;;;;;;18.30;10.15;;;;;;;22.78;68.38;99911.03;5022776;28;20057;-41
2022/06/27 01:05:13;;;;;;;16.83;10.13;;;;;;;22.84;68.32;99922.94;5028164;28;20395;-42
2022/06/27 01:07:39;;;;;;;16.38;9.55;;;;;;;22.83;68.35;99929.22;5029807;28;20054;-43
2022/06/27 01:10:06;;;;;;;15.63;9.50;;;;;;;22.82;68.28;99916.94;5027797;28;20045;-42
2022/06/27 01:12:32;;;;;;;23.70;10.90;;;;;;;22.81;68.25;99913.44;5021359;28;20041;-44
2022/06/27 01:14:59;;;;;;;16.02;10.25;;;;;;;22.82;68.34;99917.75;5030022;28;20044;-45
2022/06/27 01:17:25;;;;;;;16.92;9.30;;;;;;;22.82;68.24;99917.75;5029639;28;20052;-41
2022/06/27 01:19:51;;;;;;;16.35;10.15;;;;;;;22.83;68.16;99922.09;5027433;28;20045;-43
2022/06/27 01:22:17;;;;;;;22.25;10.20;;;;;;;22.83;68.03;99919.44;5012230;28;20137;-42
2022/06/27 01:24:43;;;;;;;17.77;9.98;;;;;;;22.86;68.14;99921.03;5026389;28;20471;-44
2022/06/27 01:27:09;;;;;;;13.57;9.20;;;;;;;22.84;68.13;99926.44;5027945;28;20044;-44
2022/06/27 01:29:37;;;;;;;16.95;10.05;;;;;;;22.86;68.12;99918.38;5021662;28;20045;-42
2022/06/27 01:32:04;;;;;;;16.05;9.50;;;;;;;22.86;68.08;99921.88;5006021;28;20037;-45
2022/06/27 01:34:32;;;;;;;19.67;9.43;;;;;;;22.87;68.04;99917.41;5015770;28;20041;-45
2022/06/27 01:36:58;;;;;;;13.57;9.20;;;;;;;22.88;68.00;99925.22;5011441;28;20048;-41
2022/06/27 01:39:26;;;;;;;14.50;8.80;;;;;;;22.73;68.07;99898.16;5027497;28;20092;-43
2022/06/27 01:41:59;;;;;;;17.48;9.38;;;;;;;22.89;68.02;99931.38;5027552;28;20132;-43
2022/06/27 01:44:28;;;;;;;14.25;9.68;;;;;;;22.89;68.00;99926.06;5011137;28;20040;-43
2022/06/27 01:47:01;;;;;;;14.77;9.60;;;;;;;22.89;68.04;99926.91;5012783;28;20099;-44
2022/06/27 01:49:30;;;;;;;13.25;9.30;;;;;;;22.88;68.15;99927.88;5019416;28;20084;-44
2022/06/27 01:51:57;;;;;;;20.35;10.35;;;;;;;22.89;68.17;99921.59;5028671;28;20183;-42
2022/06/27 01:54:24;;;;;;;15.27;9.30;;;;;;;22.85;68.26;99920.19;5019443;28;20128;-43
2022/06/27 01:56:51;;;;;;;18.10;8.50;;;;;;;22.89;68.26;99932.22;5021906;28;20094;-43
2022/06/27 01:59:20;;;;;;;17.25;9.80;;;;;;;22.89;68.49;99921.59;5028015;28;20048;-42
2022/06/27 02:01:46;;;;;;;;;;;;;;;22.89;68.40;99934.88;5043366;28;20195;-42
2022/06/27 02:04:13;;;;;;;13.93;9.75;;;;;;;22.89;68.64;99934.00;5012575;28;20456;-43
2022/06/27 02:06:40;;;;;;;14.50;9.00;;;;;;;22.88;68.80;99927.03;5028513;28;20041;-45
2022/06/27 02:09:11;;;;;;;16.48;8.93;;;;;;;22.87;69.18;99939.47;5024876;28;20090;-41
2022/06/27 02:11:38;;;;;;;13.40;9.07;;;;;;;22.87;69.15;99930.66;5025203;28;20099;-42
2022/06/27 02:14:10;;;;;;;16.55;9.38;;;;;;;22.88;69.10;99929.66;5025708;28;20085;-42
2022/06/27 02:16:39;;;;;;;13.77;8.80;;;;;;;22.82;69.23;99917.75;5065759;28;20060;-44
2022/06/27 02:19:05;;;;;;;13.60;8.82;;;;;;;22.89;69.14;99918.94;5068461;28;20446;-44
2022/06/27 02:21:31;;;;;;;12.60;8.93;;;;;;;22.93;69.18;99925.69;5051749;28;20041;-44
2022/06/27 02:23:59;;;;;;;13.77;9.48;;;;;;;22.95;69.15;99928.22;5034864;28;20410;-43
2022/06/27 02:26:28;;;;;;;14.30;9.02;;;;;;;22.96;69.18;99919.31;5035460;28;20421;-43
2022/06/27 02:28:55;;;;;;;10.43;8.13;;;;;;;22.90;68.78;99904.72;5034535;28;20053;-43
2022/06/27 02:31:23;;;;;;;14.63;8.85;;;;;;;23.01;68.63;99925.06;5035286;28;20044;-44
2022/06/27 02:33:51;;;;;;;11.70;7.95;;;;;;;23.05;68.44;99921.19;5034060;28;20044;-45
2022/06/27 02:36:20;;;;;;;12.85;8.27;;;;;;;23.09;68.26;99922.63;5034880;28;20033;-43
2022/06/27 02:38:48;;;;;;;13.55;7.95;;;;;;;23.12;68.10;99912.63;5033689;28;20041;-42
2022/06/27 02:41:16;;;;;;;14.77;8.27;;;;;;;23.15;68.09;99912.34;5050113;28;20045;-43
2022/06/27 02:43:46;;;;;;;17.58;8.98;;;;;;;23.19;67.85;99916.44;5035636;28;20060;-44
2022/06/27 02:46:12;;;;;;;11.52;7.95;;;;;;;23.24;67.93;99924.00;5033474;28;20048;-43
2022/06/27 02:48:39;;;;;;;12.02;8.32;;;;;;;23.27;67.85;99920.28;5034095;28;20041;-43
2022/06/27 02:51:09;;;;;;;11.75;8.32;;;;;;;23.30;67.46;99910.22;4999167;28;20124;-43
2022/06/27 02:53:51;;;;;;;14.27;8.68;;;;;;;23.35;67.34;99915.16;5033021;28;20056;-42
2022/06/27 02:56:44;;;;;;;14.10;8.07;;;;;;;23.38;67.20;99912.25;5021590;28;20033;-43
2022/06/27 02:59:19;;;;;;;9.90;7.90;;;;;;;23.35;67.24;99907.19;5034968;28;20521;-45
2022/06/27 03:01:48;;;;;;;14.18;8.65;;;;;;;23.44;67.23;99914.41;5002232;28;20060;-44
2022/06/27 03:04:14;;;;;;;14.33;8.90;;;;;;;23.47;67.27;99920.31;5034798;28;20155;-42
2022/06/27 03:06:39;;;;;;;11.13;8.00;;;;;;;23.50;67.14;99919.22;5031556;28;20347;-44
2022/06/27 03:09:05;;;;;;;10.68;8.25;;;;;;;23.53;67.05;99917.16;5015272;28;20041;-47
2022/06/27 03:11:32;;;;;;;11.05;8.57;;;;;;;23.59;66.91;99921.09;5002582;28;20493;-42
2022/06/27 03:14:01;;;;;;;9.48;8.48;;;;;;;23.63;66.78;99920.72;5035122;28;20076;-42
2022/06/27 03:16:27;;;;;;;12.75;8.50;;;;;;;23.59;66.79;99903.38;5016812;28;20421;-44
2022/06/27 03:18:53;;;;;;;14.40;8.23;;;;;;;23.72;66.42;99919.06;5013404;28;20056;-44
2022/06/27 03:21:40;;;;;;;9.43;7.93;;;;;;;23.77;65.95;99918.69;5015722;28;20050;-42
2022/06/27 03:24:06;;;;;;;12.25;8.23;;;;;;;23.83;65.71;99907.53;5030573;28;20048;-44
2022/06/27 03:26:32;;;;;;;14.52;7.90;;;;;;;23.89;65.39;99920.31;5005355;28;20068;-44
2022/06/27 03:28:58;;;;;;;11.10;7.55;;;;;;;23.94;65.24;99913.63;5015410;28;20037;-44
2022/06/27 03:31:25;;;;;;;10.30;7.70;;;;;;;24.00;64.73;99909.59;5031346;28;20505;-42
2022/06/27 03:33:54;;;;;;;11.60;7.97;;;;;;;24.04;64.60;99914.50;5027345;28;21663;-42
2022/06/27 03:36:52;;;;;;;10.35;8.10;;;;;;;24.12;64.35;99913.88;5010868;28;20136;-42
2022/06/27 03:39:20;;;;;;;10.77;8.38;;;;;;;24.09;64.38;99900.81;4996483;28;20066;-42
2022/06/27 03:41:47;;;;;;;11.63;8.32;;;;;;;24.20;64.14;99902.59;4995493;28;20121;-42
2022/06/27 03:44:13;;;;;;;12.45;7.80;;;;;;;24.26;63.89;99904.72;4995430;28;20274;-42
2022/06/27 03:46:52;;;;;;;10.00;7.65;;;;;;;24.31;63.52;99913.13;5011359;28;20477;-42
2022/06/27 03:52:10;;;;;;;8.68;7.43;;;;;;;24.42;62.92;99910.38;5005995;28;20045;-42
2022/06/27 03:54:37;;;;;;;11.55;7.30;;;;;;;24.46;62.81;99904.63;5010400;28;20046;-43
2022/06/27 03:57:04;;;;;;;9.52;8.05;;;;;;;24.53;62.75;99902.28;5011497;28;20037;-41
2022/06/27 03:59:29;;;;;;;8.85;7.65;;;;;;;24.60;62.41;99905.25;5010353;28;20050;-42
2022/06/27 04:01:55;;;;;;;12.38;8.23;;;;;;;24.65;62.28;99901.19;5008168;28;20548;-42
2022/06/27 04:04:22;;;;;;;16.77;7.90;;;;;;;24.70;61.96;99898.13;5028001;28;20074;-44
2022/06/27 04:06:48;;;;;;;9.88;7.38;;;;;;;24.76;62.10;99901.06;5023162;28;20081;-42
2022/06/27 04:09:14;;;;;;;14.63;7.45;;;;;;;24.82;61.67;99897.84;4996799;28;20053;-44
2022/06/27 04:11:40;;;;;;;13.05;8.23;;;;;;;24.88;61.52;99904.47;5025425;28;20044;-43
2022/06/27 04:14:13;;;;;;;12.02;8.55;;;;;;;24.95;61.12;99897.63;5061727;28;20064;-43
2022/06/27 04:16:57;;;;;;;12.80;8.50;;;;;;;25.00;60.86;99895.41;5029125;28;20061;-42
2022/06/27 04:19:42;;;;;;;13.35;7.78;;;;;;;25.08;60.82;99902.66;5029764;28;20098;-42
2022/06/27 04:22:23;;;;;;;12.15;7.80;;;;;;;25.15;61.08;99896.66;5030555;28;20136;-42
2022/06/27 04:24:57;;;;;;;12.65;8.45;;;;;;;25.23;60.89;99901.25;5031907;28;20049;-44
2022/06/27 04:27:40;;;;;;;12.60;8.68;;;;;;;25.30;60.61;99892.59;5030683;28;20037;-43
2022/06/27 04:30:08;;;;;;;13.88;8.32;;;;;;;25.38;60.73;99899.03;5025610;28;20055;-43
2022/06/27 04:32:33;;;;;;;18.70;11.68;;;;;;;25.43;60.08;99892.31;5050435;28;20048;-43
2022/06/27 04:34:59;;;;;;;13.10;8.70;;;;;;;25.50;60.19;99893.41;5050595;28;20131;-44
2022/06/27 04:37:26;;;;;;;11.77;8.43;;;;;;;25.58;60.26;99892.72;5050233;28;20574;-43
2022/06/27 04:40:12;;;;;;;11.35;8.00;;;;;;;25.68;60.39;99898.88;5029925;28;20107;-43
2022/06/27 04:42:40;;;;;;;11.40;9.15;;;;;;;25.75;59.82;99891.16;4996324;28;20453;-42
2022/06/27 04:45:11;;;;;;;13.02;8.52;;;;;;;25.83;59.34;99888.59;4995686;28;20525;-43
2022/06/27 04:47:42;;;;;;;10.98;8.23;;;;;;;25.89;59.42;99888.88;5029072;28;20053;-43
2022/06/27 04:50:16;;;;;;;9.63;8.38;;;;;;;25.96;58.76;99889.94;5011721;28;20133;-44
2022/06/27 04:52:42;;;;;;;12.32;9.07;;;;;;;26.03;58.49;99890.19;5024950;28;20529;-43
2022/06/27 04:55:10;;;;;;;12.90;8.27;;;;;;;26.08;58.76;99883.44;5012231;28;20041;-43
2022/06/27 04:57:37;;;;;;;9.25;8.15;;;;;;;26.12;58.43;99882.16;5035975;28;20126;-42
2022/06/27 05:00:07;;;;;;;13.48;8.48;;;;;;;26.22;58.71;99886.63;4996005;28;20091;-45
2022/06/27 05:02:52;;;;;;;11.80;8.80;;;;;;;26.28;58.22;99886.06;5025379;28;20521;-43
2022/06/27 05:05:18;;;;;;;14.30;9.68;;;;;;;26.36;58.24;99887.00;5032000;28;20064;-42
2022/06/27 05:07:45;;;;;;;11.68;9.00;;;;;;;26.41;58.10;99882.06;5028065;28;20540;-42
2022/06/27 05:10:11;;;;;;;14.95;8.57;;;;;;;26.52;58.05;99881.03;5027924;28;20088;-42
2022/06/27 05:12:36;;;;;;;12.10;9.23;;;;;;;26.63;57.99;99888.81;5038654;28;20880;-40
2022/06/27 05:15:03;;;;;;;12.23;9.13;;;;;;;26.73;57.95;99883.44;5002320;28;20045;-40
2022/06/27 05:17:30;;;;;;;13.55;9.60;;;;;;;26.81;57.21;99880.81;5026629;28;20045;-40
2022/06/27 05:19:56;;;;;;;14.48;9.32;;;;;;;26.85;57.53;99875.03;5038257;28;20049;-40
2022/06/27 05:22:23;;;;;;;12.55;8.93;;;;;;;26.99;57.85;99881.72;5029003;28;20124;-40
2022/06/27 05:24:49;;;;;;;11.90;8.95;;;;;;;27.00;56.43;99858.53;5009787;28;20038;-40
2022/06/27 05:27:16;;;;;;;10.85;9.38;;;;;;;27.08;56.46;99866.59;5029275;28;20132;-39
2022/06/27 05:29:42;;;;;;;10.93;9.00;;;;;;;27.26;56.41;99870.13;5020837;28;20038;-41
2022/06/27 05:32:09;;;;;;;12.35;9.38;;;;;;;27.35;56.50;99871.84;5009455;28;20091;-41
2022/06/27 05:34:35;;;;;;;12.88;8.80;;;;;;;27.46;56.30;99873.44;5040900;28;20052;-40
2022/06/27 05:37:03;;;;;;;15.93;9.68;;;;;;;27.57;56.51;99878.56;4996302;28;20041;-41
2022/06/27 05:39:29;;;;;;;13.70;8.90;;;;;;;27.62;56.46;99868.25;5029228;28;20041;-40
2022/06/27 05:41:55;;;;;;;13.25;9.75;;;;;;;27.77;56.07;99877.34;5028952;28;20048;-41
2022/06/27 05:44:24;;;;;;;13.82;8.70;;;;;;;27.86;55.92;99868.38;5028061;28;20037;-40
2022/06/27 05:46:50;;;;;;;17.73;9.77;;;;;;;28.00;55.89;99864.28;5030341;28;20053;-40
2022/06/27 05:49:39;;;;;;;15.50;9.27;;;;;;;28.05;55.18;99853.94;5029329;28;20049;-40
2022/06/27 05:52:08;;;;;;;13.43;9.13;;;;;;;28.13;54.54;99859.34;5029108;28;20033;-40
2022/06/27 05:54:35;;;;;;;16.83;9.82;;;;;;;28.29;53.69;99863.94;5042932;28;20136;-40
2022/06/27 05:57:05;;;;;;;9.40;8.50;;;;;;;28.37;53.07;99862.09;5029174;28;20099;-41
2022/06/27 05:59:33;;;;;;;10.05;9.05;;;;;;;28.45;52.93;99866.66;5029967;28;20053;-41
2022/06/27 06:02:01;;;;;;;11.90;8.63;;;;;;;28.47;52.74;99870.84;5012504;28;20140;-41
2022/06/27 06:04:31;;;;;;;13.43;8.90;;;;;;;28.60;53.09;99862.34;5012938;28;20048;-41
2022/06/27 06:06:59;;;;;;;11.32;9.15;;;;;;;28.65;53.19;99854.69;5028732;28;20068;-38
2022/06/27 06:09:25;;;;;;;9.98;8.98;;;;;;;28.72;52.65;99844.16;5028405;28;20128;-39
2022/06/27 06:11:51;;;;;;;12.48;8.98;;;;;;;28.95;51.97;99866.63;5028863;28;20124;-41
2022/06/27 06:14:21;;;;;;;15.93;12.30;;;;;;;29.04;52.34;99865.66;5028143;28;20080;-39
2022/06/27 06:16:49;;;;;;;12.07;8.55;;;;;;;29.11;52.19;99855.94;5027605;28;20116;-40
2022/06/27 06:19:16;;;;;;;9.65;8.80;;;;;;;29.32;51.40;99868.84;5028065;28;20095;-40
2022/06/27 06:21:42;;;;;;;10.68;9.50;;;;;;;29.35;50.92;99864.00;5011864;28;20128;-39
2022/06/27 06:24:09;;;;;;;10.55;9.45;;;;;;;29.48;50.73;99861.63;5028204;28;20044;-40
2022/06/27 06:26:35;;;;;;;11.00;9.90;;;;;;;29.52;50.54;99842.56;5012109;28;20044;-39
2022/06/27 06:29:12;;;;;;;10.18;8.18;;;;;;;29.62;49.62;99841.38;5027509;28;20095;-39
2022/06/27 06:31:43;;;;;;;13.60;9.98;;;;;;;29.82;50.02;99847.16;5027948;28;20029;-40
2022/06/27 06:34:13;;;;;;;11.98;8.98;;;;;;;30.03;49.64;99857.34;5011035;28;20579;-41
2022/06/27 06:36:42;;;;;;;16.38;10.27;;;;;;;30.12;49.08;99854.47;5029502;28;20029;-40
2022/06/27 06:39:09;;;;;;;9.60;8.40;;;;;;;30.33;48.13;99855.72;5028603;28;20041;-40
2022/06/27 06:41:36;;;;;;;16.05;10.35;;;;;;;30.55;48.09;99860.34;5028399;28;20529;-40
2022/06/27 06:44:05;;;;;;;9.95;8.75;;;;;;;30.90;47.01;99858.94;5032793;28;20051;-40
2022/06/27 06:46:55;;;;;;;11.93;10.07;;;;;;;31.62;45.41;99860.19;5025443;28;20046;-40
2022/06/27 06:49:30;;;;;;;12.68;8.93;;;;;;;32.35;43.91;99854.00;5028281;28;20043;-41
2022/06/27 06:51:56;;;;;;;9.57;8.63;;;;;;;33.31;41.62;99858.16;5029656;28;20037;-40
2022/06/27 06:54:22;;;;;;;10.35;9.07;;;;;;;34.16;39.87;99857.91;5028502;28;20046;-40
2022/06/27 06:56:52;;;;;;;9.95;9.05;;;;;;;34.89;38.00;99859.88;5029401;28;20048;-39
2022/06/27 06:59:19;;;;;;;13.55;10.80;;;;;;;35.87;36.78;99864.47;5029464;28;20095;-40
2022/06/27 07:01:47;;;;;;;10.82;9.73;;;;;;;36.69;34.56;99861.06;5030103;28;20128;-39
2022/06/27 07:04:13;;;;;;;9.98;9.00;;;;;;;37.36;33.60;99853.31;5032385;28;20051;-40
2022/06/27 07:06:40;;;;;;;12.10;9.38;;;;;;;38.06;32.11;99858.28;5048619;28;20136;-40
2022/06/27 07:09:06;;;;;;;10.53;9.10;;;;;;;38.86;30.85;99861.63;5033095;28;20076;-41
2022/06/27 07:11:32;;;;;;;10.75;9.68;;;;;;;39.49;30.04;99855.66;5031921;28;20431;-41
2022/06/27 07:13:59;;;;;;;10.10;9.20;;;;;;;39.57;29.89;99854.47;5048227;28;20425;-40
2022/06/27 07:16:25;;;;;;;10.23;9.27;;;;;;;40.31;28.62;99858.28;5033245;28;20057;-40
2022/06/27 07:18:55;;;;;;;9.40;8.60;;;;;;;39.68;28.67;99854.44;5013892;28;20416;-40
2022/06/27 07:21:22;;;;;;;10.73;9.60;;;;;;;37.87;31.61;99837.59;5026539;28;20390;-39
2022/06/27 07:23:50;;;;;;;12.00;10.07;;;;;;;39.28;29.64;99865.19;5027072;28;20080;-39
2022/06/27 07:26:17;;;;;;;;;;;;;;;39.91;29.01;99858.25;5032495;28;20120;-40
2022/06/27 07:28:43;;;;;;;12.50;9.50;;;;;;;38.50;30.30;99859.84;5031687;28;19920;-40
2022/06/27 07:31:11;;;;;;;9.85;8.95;;;;;;;37.13;32.22;99848.50;5031481;28;20041;-40
2022/06/27 07:33:42;;;;;;;10.50;9.50;;;;;;;38.33;30.47;99849.81;5030387;28;20102;-42
2022/06/27 07:36:15;;;;;;;14.30;10.90;;;;;;;40.23;28.08;99862.25;5032816;28;20037;-40
2022/06/27 07:38:46;;;;;;;10.48;9.48;;;;;;;41.41;26.33;99858.69;5030507;28;20203;-39
2022/06/27 07:41:13;;;;;;;26.17;19.33;;;;;;;42.62;25.31;99862.25;5032034;28;20068;-39
2022/06/27 07:43:40;;;;;;;23.23;16.27;;;;;;;42.89;24.69;99863.13;5032467;28;20127;-38
2022/06/27 07:46:06;;;;;;;14.95;13.40;;;;;;;41.71;25.81;99837.34;5032404;28;20033;-40
2022/06/27 07:48:33;;;;;;;22.45;16.73;;;;;;;41.91;25.52;99852.38;5031927;28;20045;-39
2022/06/27 07:50:59;;;;;;;10.63;9.68;;;;;;;43.16;23.96;99856.81;5030709;28;20460;-39
2022/06/27 07:53:27;;;;;;;17.60;14.75;;;;;;;43.98;23.43;99862.59;5032200;28;20084;-38
2022/06/27 07:55:54;;;;;;;13.02;11.40;;;;;;;43.18;23.85;99847.25;5031024;28;20509;-39
2022/06/27 07:58:26;;;;;;;12.02;9.13;;;;;;;41.26;25.50;99855.72;5029944;28;20076;-38
2022/06/27 08:00:52;;;;;;;12.07;10.80;;;;;;;42.53;24.28;99859.16;5031564;28;20102;-40
2022/06/27 08:06:15;;;;;;;20.02;14.50;;;;;;;44.49;22.38;99849.91;5027649;28;20064;-40
2022/06/27 08:08:43;;;;;;;31.67;20.90;;;;;;;45.09;21.46;99853.88;5030254;28;20418;-39
2022/06/27 08:11:11;;;;;;;16.48;14.00;;;;;;;45.58;21.05;99851.38;5031517;28;20057;-40
2022/06/27 08:13:38;;;;;;;29.67;21.88;;;;;;;46.06;20.41;99849.88;5030718;28;20037;-40
2022/06/27 08:16:05;;;;;;;11.20;10.32;;;;;;;46.35;19.75;99842.59;5013442;28;20041;-38
2022/06/27 08:18:32;;;;;;;14.05;11.65;;;;;;;45.32;20.93;99847.84;5031242;28;20069;-40
2022/06/27 08:21:01;;;;;;;22.10;19.00;;;;;;;43.23;23.19;99844.56;5029333;28;20137;-40
2022/06/27 08:23:28;;;;;;;11.82;9.98;;;;;;;42.58;23.48;99837.34;5052668;28;20453;-39
2022/06/27 08:25:54;;;;;;;10.40;9.38;;;;;;;41.36;24.64;99834.88;5030529;28;20466;-40
2022/06/27 08:28:21;;;;;;;10.25;9.00;;;;;;;42.15;23.38;99837.38;5030964;28;20041;-39
2022/06/27 08:30:46;;;;;;;10.40;9.50;;;;;;;42.72;22.38;99801.38;5031426;28;20052;-40
2022/06/27 08:33:13;;;;;;;9.73;9.00;;;;;;;43.99;21.37;99828.63;5031183;28;20060;-39
2022/06/27 08:35:39;;;;;;;12.93;10.18;;;;;;;44.88;21.36;99838.47;5030862;28;20041;-40
2022/06/27 08:38:05;;;;;;;12.00;9.07;;;;;;;45.71;19.97;99833.47;5030702;28;20041;-40
2022/06/27 08:40:31;;;;;;;11.00;10.07;;;;;;;46.32;19.85;99842.34;5045973;28;20513;-40
2022/06/27 08:42:58;;;;;;;10.68;9.77;;;;;;;46.71;18.94;99845.97;5028393;28;20064;-39
2022/06/27 08:45:25;;;;;;;10.13;9.07;;;;;;;45.68;19.23;99834.88;5030271;28;20037;-40
2022/06/27 08:47:56;;;;;;;12.48;11.32;;;;;;;44.19;21.18;99836.91;5020625;28;20045;-40
2022/06/27 08:50:22;;;;;;;30.25;20.23;;;;;;;44.87;20.58;99836.81;5029616;28;20513;-40
2022/06/27 08:52:49;;;;;;;35.40;23.23;;;;;;;45.87;20.17;99844.16;5027802;28;20052;-40
2022/06/27 08:55:15;;;;;;;10.98;10.07;;;;;;;46.60;18.88;99841.66;5027644;28;20048;-40
2022/06/27 08:57:45;;;;;;;12.93;11.50;;;;;;;46.91;18.83;99835.94;5027537;28;20038;-41
2022/06/27 09:00:12;;;;;;;10.63;9.63;;;;;;;47.15;18.34;99831.34;5011096;28;20371;-39
2022/06/27 09:02:43;;;;;;;11.43;10.48;;;;;;;47.31;17.99;99824.59;5027371;28;20085;-39
2022/06/27 09:05:15;;;;;;;17.10;12.45;;;;;;;47.14;18.41;99833.25;5029692;28;20552;-40
2022/06/27 09:07:50;;;;;;;11.73;10.23;;;;;;;47.24;18.32;99829.59;5009936;28;20104;-41
2022/06/27 09:10:26;;;;;;;11.75;10.57;;;;;;;47.98;18.09;99831.00;5042372;28;20046;-40
2022/06/27 09:12:58;;;;;;;10.95;9.93;;;;;;;47.83;18.24;99820.19;5011042;28;20045;-40
2022/06/27 09:15:46;;;;;;;11.45;10.25;;;;;;;46.38;19.21;99814.50;5026637;28;20041;-40
2022/06/27 09:18:15;;;;;;;16.95;11.50;;;;;;;46.53;18.96;99818.28;5030750;28;20037;-38
2022/06/27 09:20:48;;;;;;;11.02;10.10;;;;;;;47.39;17.81;99817.63;5029924;28;20049;-39
2022/06/27 09:23:49;;;;;;;11.73;10.63;;;;;;;47.89;17.25;99817.06;5025464;28;20049;-39
2022/06/27 09:26:19;;;;;;;11.32;10.38;;;;;;;48.45;17.16;99819.09;5029239;28;20048;-39
2022/06/27 09:29:06;;;;;;;20.02;16.92;;;;;;;48.45;17.00;99819.09;4996251;28;20053;-52
2022/06/27 09:31:37;;;;;;;16.75;15.02;;;;;;;49.13;16.82;99811.13;5008658;28;20041;-50
2022/06/27 09:34:09;;;;;;;17.73;15.77;;;;;;;49.70;16.50;99817.22;5010115;28;20112;-51
2022/06/27 09:36:42;;;;;;;12.75;11.52;;;;;;;50.20;15.87;99814.56;5010116;28;20053;-51
2022/06/27 09:39:24;;;;;;;22.27;11.68;;;;;;;50.09;16.06;99810.38;5042083;28;20096;-49
2022/06/27 09:42:07;;;;;;;12.85;11.35;;;;;;;49.38;17.17;99809.81;5007575;28;20410;-51
2022/06/27 09:44:40;;;;;;;16.08;13.52;;;;;;;48.56;17.26;99812.31;5010162;28;20069;-48
2022/06/27 09:47:11;;;;;;;17.73;14.10;;;;;;;48.88;17.24;99810.72;5009926;28;20180;-48
2022/06/27 09:49:38;;;;;;;12.00;11.00;;;;;;;49.49;16.34;99804.94;5010265;28;20486;-52
2022/06/27 09:52:13;;;;;;;15.68;14.20;;;;;;;50.16;15.61;99808.81;5024973;28;20042;-49
2022/06/27 09:54:41;;;;;;;11.13;10.20;;;;;;;50.55;14.83;99807.41;5010103;28;20038;-50
2022/06/27 09:57:08;;;;;;;15.20;13.68;;;;;;;50.93;15.19;99805.91;5010158;28;20069;-53
2022/06/27 09:59:35;;;;;;;11.63;10.43;;;;;;;50.05;15.58;99794.38;5010177;28;20037;-52
2022/06/27 10:02:01;;;;;;;;;;;;;;;48.77;16.72;99788.81;5010168;28;20528;-51
2022/06/27 10:04:28;;;;;;;11.20;10.25;;;;;;;49.15;16.30;99797.00;5010047;28;19921;-52
2022/06/27 10:06:56;;;;;;;10.60;8.90;;;;;;;49.92;15.93;99783.34;5012158;28;20403;-52
2022/06/27 10:09:24;;;;;;;9.00;8.13;;;;;;;48.32;16.74;99800.50;5028749;28;20095;-47
2022/06/27 10:12:18;;;;;;;11.48;10.50;;;;;;;48.01;17.20;99797.34;5029902;28;20033;-49
2022/06/27 10:14:44;;;;;;;11.20;10.38;;;;;;;48.99;16.35;99790.09;5029741;28;20568;-49
2022/06/27 10:17:14;;;;;;;9.77;9.07;;;;;;;48.99;16.04;99782.63;5029910;28;20046;-50
2022/06/27 10:19:59;;;;;;;16.13;10.55;;;;;;;47.59;17.31;99774.09;5028320;28;20042;-49
2022/06/27 10:22:26;;;;;;;10.65;9.75;;;;;;;48.24;16.71;99784.63;5028540;28;20502;-49
2022/06/27 10:24:52;;;;;;;11.13;10.10;;;;;;;48.89;16.77;99782.78;5028027;28;20049;-51
2022/06/27 10:27:31;;;;;;;10.35;9.65;;;;;;;49.46;15.75;99777.94;5029994;28;20128;-52
2022/06/27 10:29:59;;;;;;;10.93;9.90;;;;;;;49.52;15.51;99766.44;5029735;28;20517;-51
2022/06/27 10:32:56;;;;;;;10.45;9.63;;;;;;;47.59;17.37;99770.53;5028444;28;20434;-50
2022/06/27 10:35:24;;;;;;;10.02;9.23;;;;;;;47.06;17.84;99761.44;5020473;28;20121;-50
2022/06/27 10:37:49;;;;;;;8.13;7.53;;;;;;;46.22;18.17;99766.19;5032634;28;20049;-48
2022/06/27 10:40:21;;;;;;;10.98;9.15;;;;;;;45.84;18.58;99755.97;5033881;28;20044;-51
2022/06/27 10:42:54;;;;;;;12.88;11.77;;;;;;;47.03;17.36;99762.88;5033627;28;20531;-50
2022/06/27 10:45:20;;;;;;;10.68;9.80;;;;;;;47.92;16.68;99760.50;5032609;28;20505;-52
2022/06/27 10:48:06;;;;;;;9.93;9.03;;;;;;;48.32;16.77;99757.16;5033499;28;20033;-50
2022/06/27 10:50:42;;;;;;;11.05;10.05;;;;;;;48.27;16.48;99762.75;5031950;28;20460;-49
2022/06/27 10:53:19;;;;;;;10.82;10.02;;;;;;;48.58;16.08;99762.31;5033480;28;20119;-48
2022/06/27 10:55:45;;;;;;;10.15;9.25;;;;;;;48.48;16.45;99762.47;5033443;28;20569;-50
2022/06/27 10:58:27;;;;;;;12.18;10.43;;;;;;;47.93;17.10;99757.44;5033251;28;20426;-51
2022/06/27 11:01:14;;;;;;;12.38;10.93;;;;;;;47.73;17.49;99746.69;5031970;28;20093;-48
2022/06/27 11:03:40;;;;;;;11.88;10.95;;;;;;;48.17;17.18;99748.31;5033279;28;20064;-50
2022/06/27 11:06:08;;;;;;;10.53;9.43;;;;;;;48.37;17.23;99748.00;5033151;28;20041;-52
2022/06/27 11:08:36;;;;;;;11.18;10.27;;;;;;;47.01;18.36;99750.47;5032934;28;20049;-52
2022/06/27 11:11:04;;;;;;;10.45;9.63;;;;;;;45.48;19.56;99741.53;5033065;28;20474;-48
2022/06/27 11:13:46;;;;;;;10.77;9.95;;;;;;;43.81;21.41;99735.91;5064825;28;20047;-51
2022/06/27 11:16:22;;;;;;;10.35;9.30;;;;;;;43.71;21.60;99741.31;5033011;28;20040;-51
2022/06/27 11:19:01;;;;;;;11.90;10.85;;;;;;;44.92;20.96;99732.53;5033013;28;20068;-52
2022/06/27 11:21:32;;;;;;;11.65;10.75;;;;;;;46.25;19.30;99738.16;5032735;28;20037;-49
2022/06/27 11:24:01;;;;;;;11.75;10.77;;;;;;;47.16;18.62;99742.88;5032832;28;20041;-52
2022/06/27 11:26:30;;;;;;;11.30;10.40;;;;;;;47.51;17.98;99736.19;5032696;28;20064;-49
2022/06/27 11:31:58;;;;;;;10.98;10.10;;;;;;;48.33;17.08;99739.50;5031455;28;20095;-51
2022/06/27 11:34:25;;;;;;;10.80;9.90;;;;;;;48.68;16.49;99740.06;5032678;28;20044;-50
2022/06/27 11:36:52;;;;;;;10.77;9.73;;;;;;;48.56;17.13;99739.72;5031265;28;20183;-49
2022/06/27 11:39:32;;;;;;;11.90;10.50;;;;;;;48.02;17.34;99729.22;5031187;28;20517;-49
2022/06/27 11:42:02;;;;;;;12.18;11.05;;;;;;;48.38;17.17;99727.59;5032353;28;20509;-51
2022/06/27 11:44:28;;;;;;;13.38;11.00;;;;;;;48.86;16.68;99735.63;5032652;28;20084;-52